Aérodrome :
LOGIN :

S'inscrire | Disclaimer

   EN    FR    IT 

 










Légende :    VFR   VFR Marginal   IFR   IFR Intensif   IFR Très Intensif
Visi : 
Plafond : 
>= 8 km
>= 3000ft
5 à 8 km
1000 à 3000 ft
1500m à 5 km
500 à 1000 ft
800 à 1500m
200 à 500 ft
< 800m
< 200 ft
Symboles :   Orages  Brouillard  Fortes neiges  Fortes précipitations  Vent > 20 kt
SIGMETs :   Divers  Orages  Givrage  Turbulence  Onde Orograph.  Cendres Volcan.







- Altitude de l'aérodrome : 117 ft
- Code IATA : NWI
- Voir les cartes d'approche


EGSH - Norwich

DERNIER METAR :
  • 281150Z 34008KT 280V040 9999 FEW018 SCT045 09/03 Q1016 NOSIG

METARs EXPIRÉS :
  • 281050Z 35012KT 320V030 9999 SCT018 BKN025 08/03 Q1016 NOSIG
  • 281020Z 36007KT 310V060 9999 FEW019 SCT044 08/04 Q1016 NOSIG
  • 280950Z 36008KT 300V050 9999 FEW019 SCT044 09/04 Q1016 NOSIG
  • 280920Z 33009KT 280V010 9999 FEW019 SCT044 08/03 Q1016 NOSIG

TAF TAF EGSH
Valide du 28 à 12h jusqu'au 28 à 21h UTC


281104Z 2812/2821 34009KT 9999 FEW025 SCT035
ATIS : +44 1603 420 640
Pas de NOTAMs connus pour ce terrain.



MET'MAP, la Météo Aéronautique d'un coup d'oeil ! - Copyright ORBIFLY Décembre 2007 - Disclaimer

ORBIFLY MET'MAP TEAM :

Programmation & Développement : Alexandra Zaïnal
Conception & Développement : Baudouin d'Aumeries
Co-Programmation & Développement : Marc-Olivier Méhu
Soutien technique & logistique : Manuel Goepfert

Contact : metmap@orbifly.com




SOURCES & CREDITS :

   NOAA